createdAt,value
2018-06-23T00:00:51.954Z,13.70
2018-06-23T00:05:55.013Z,13.70
2018-06-23T00:10:58.204Z,13.70
2018-06-23T00:16:01.296Z,13.60
2018-06-23T00:21:04.424Z,13.60
2018-06-23T00:26:13.011Z,13.50
2018-06-23T00:31:16.066Z,13.40
2018-06-23T00:36:19.218Z,13.30
2018-06-23T00:41:22.287Z,13.30
2018-06-23T00:51:28.158Z,13.20
2018-06-23T00:56:31.219Z,13.20
2018-06-23T01:01:34.505Z,13.20
2018-06-23T01:06:37.543Z,13.10
2018-06-23T01:11:40.629Z,13.10
2018-06-23T01:16:43.647Z,13.00
2018-06-23T01:21:46.679Z,13.00
2018-06-23T01:26:49.830Z,13.00
2018-06-23T01:31:53.163Z,13.00
2018-06-23T01:36:56.197Z,12.90
2018-06-23T01:41:59.260Z,12.90
2018-06-23T01:47:02.301Z,12.90
2018-06-23T01:52:05.353Z,13.00
2018-06-23T01:57:08.401Z,12.90
2018-06-23T02:02:11.503Z,12.90
2018-06-23T02:07:14.603Z,12.90
2018-06-23T02:12:17.659Z,12.90
2018-06-23T02:17:27.245Z,13.00
2018-06-23T02:22:35.923Z,13.00
2018-06-23T02:27:44.392Z,13.00
2018-06-23T02:32:51.693Z,13.00
2018-06-23T02:37:54.770Z,12.90
2018-06-23T02:48:00.716Z,12.80
2018-06-23T02:53:03.731Z,12.80
2018-06-23T02:58:06.810Z,12.90
2018-06-23T03:03:09.874Z,12.80
2018-06-23T03:08:12.944Z,12.70
2018-06-23T03:13:15.963Z,12.70
2018-06-23T03:18:19.044Z,12.70
2018-06-23T03:23:22.112Z,12.70
2018-06-23T03:28:25.167Z,12.60
2018-06-23T03:33:28.231Z,12.60
2018-06-23T03:38:31.288Z,12.60
2018-06-23T03:43:34.344Z,12.40
2018-06-23T03:48:37.388Z,12.40
2018-06-23T03:53:40.469Z,12.50
2018-06-23T03:58:43.521Z,12.50
2018-06-23T04:03:46.701Z,12.40
2018-06-23T04:08:49.751Z,12.50
2018-06-23T04:13:52.866Z,12.50
2018-06-23T04:18:58.813Z,12.60
2018-06-23T04:24:01.884Z,12.70
2018-06-23T04:29:05.232Z,12.60
2018-06-23T04:34:08.318Z,12.60
2018-06-23T04:39:11.355Z,12.80
2018-06-23T04:44:14.428Z,13.00
2018-06-23T04:49:17.472Z,13.00
2018-06-23T04:54:20.617Z,12.90
2018-06-23T05:04:26.573Z,12.80
2018-06-23T05:09:29.635Z,12.80
2018-06-23T05:14:32.687Z,12.90
2018-06-23T05:19:35.766Z,13.00
2018-06-23T05:24:39.024Z,13.20
2018-06-23T05:29:42.049Z,13.50
2018-06-23T05:34:45.090Z,13.40
2018-06-23T05:39:48.208Z,13.40
2018-06-23T05:44:51.300Z,13.50
2018-06-23T05:49:54.301Z,13.60
2018-06-23T05:54:57.373Z,13.60
2018-06-23T06:00:00.460Z,13.90
2018-06-23T06:05:03.541Z,14.20
2018-06-23T06:10:06.668Z,14.60
2018-06-23T06:15:09.715Z,14.40
2018-06-23T06:20:14.007Z,14.20
2018-06-23T06:25:18.861Z,14.20
2018-06-23T06:30:21.942Z,14.20
2018-06-23T06:35:25.069Z,14.10
2018-06-23T06:40:28.138Z,14.10
2018-06-23T06:45:31.293Z,14.30
2018-06-23T06:50:34.364Z,14.30
2018-06-23T06:55:37.596Z,14.20
2018-06-23T07:00:40.660Z,14.10
2018-06-23T07:05:43.744Z,14.00
2018-06-23T07:10:46.854Z,13.90
2018-06-23T07:15:49.955Z,13.70
2018-06-23T07:20:53.018Z,13.50
2018-06-23T07:25:56.092Z,13.00
2018-06-23T07:30:59.143Z,12.70
2018-06-23T07:36:02.258Z,12.80
2018-06-23T07:41:05.324Z,13.70
2018-06-23T07:46:08.454Z,14.40
2018-06-23T07:51:11.649Z,14.00
2018-06-23T07:56:14.750Z,14.00
2018-06-23T08:01:18.143Z,14.10
2018-06-23T08:06:21.278Z,14.40
2018-06-23T08:11:24.427Z,14.10
2018-06-23T08:16:27.538Z,14.10
2018-06-23T08:21:30.563Z,14.20
2018-06-23T08:26:33.628Z,14.20
2018-06-23T08:31:36.671Z,14.30
2018-06-23T08:36:40.541Z,14.50
2018-06-23T08:41:43.623Z,14.40
2018-06-23T08:46:46.764Z,14.40
2018-06-23T08:51:49.988Z,14.40
2018-06-23T08:56:53.292Z,14.80
2018-06-23T09:01:56.479Z,14.70
2018-06-23T09:06:59.565Z,14.60
2018-06-23T09:12:02.740Z,14.90
2018-06-23T09:17:05.878Z,15.80
2018-06-23T09:22:08.935Z,16.30
2018-06-23T09:27:12.064Z,16.90
2018-06-23T09:32:15.109Z,17.00
2018-06-23T09:37:18.303Z,16.80
2018-06-23T09:42:21.580Z,16.80
2018-06-23T09:47:24.720Z,16.70
2018-06-23T09:52:28.037Z,16.80
2018-06-23T09:57:31.099Z,17.40
2018-06-23T10:02:34.241Z,17.40
2018-06-23T10:07:37.308Z,17.80
2018-06-23T10:12:40.360Z,17.70
2018-06-23T10:17:43.368Z,17.40
2018-06-23T10:22:46.441Z,17.20
2018-06-23T10:27:49.549Z,16.90
2018-06-23T10:32:52.661Z,17.10
2018-06-23T10:37:55.824Z,17.60
2018-06-23T10:42:58.904Z,17.90
2018-06-23T10:48:02.019Z,18.30
2018-06-23T10:53:05.265Z,18.80
2018-06-23T10:58:08.406Z,19.00
2018-06-23T11:03:11.666Z,18.70
2018-06-23T11:08:14.907Z,18.30
2018-06-23T11:13:18.204Z,18.00
2018-06-23T11:18:21.469Z,18.00
2018-06-23T11:23:24.733Z,18.50
2018-06-23T11:28:27.836Z,18.70
2018-06-23T11:33:31.004Z,19.30
2018-06-23T11:38:34.168Z,19.10
2018-06-23T11:43:37.318Z,18.60
2018-06-23T11:48:40.344Z,18.20
2018-06-23T11:53:43.413Z,18.50
2018-06-23T11:58:46.536Z,18.70
2018-06-23T12:03:49.642Z,19.10
2018-06-23T12:08:52.929Z,19.00
2018-06-23T12:13:56.089Z,19.00
2018-06-23T12:18:59.819Z,19.30
2018-06-23T12:24:02.899Z,20.00
2018-06-23T12:29:06.032Z,20.40
2018-06-23T12:34:09.149Z,20.00
2018-06-23T12:39:12.606Z,19.40
2018-06-23T12:49:18.798Z,19.20
2018-06-23T12:54:22.439Z,19.10
2018-06-23T12:59:25.728Z,19.20
2018-06-23T13:04:28.854Z,19.30
2018-06-23T13:09:33.038Z,19.10
2018-06-23T13:14:36.093Z,19.30
2018-06-23T13:19:39.152Z,19.30
2018-06-23T13:24:42.272Z,19.00
2018-06-23T13:29:45.386Z,18.90
2018-06-23T13:34:48.444Z,19.10
2018-06-23T13:39:51.759Z,19.30
2018-06-23T13:44:54.821Z,18.70
2018-06-23T13:49:57.951Z,18.10
2018-06-23T13:55:01.213Z,17.60
2018-06-23T14:00:04.472Z,17.40
2018-06-23T14:05:07.578Z,17.10
2018-06-23T14:10:10.608Z,17.00
2018-06-23T14:15:13.677Z,17.00
2018-06-23T14:20:16.736Z,17.10
2018-06-23T14:25:19.810Z,17.50
2018-06-23T14:30:22.852Z,17.80
2018-06-23T14:35:25.906Z,18.10
2018-06-23T14:40:28.967Z,18.20
2018-06-23T14:45:32.049Z,18.20
2018-06-23T14:50:35.186Z,18.00
2018-06-23T14:55:38.263Z,17.70
2018-06-23T15:00:41.324Z,17.30
2018-06-23T15:05:44.373Z,17.10
2018-06-23T15:10:58.911Z,17.10
2018-06-23T15:16:01.990Z,17.20
2018-06-23T15:21:05.055Z,17.10
2018-06-23T15:26:08.083Z,17.10
2018-06-23T15:31:11.372Z,16.30
2018-06-23T15:36:15.677Z,15.50
2018-06-23T15:41:18.729Z,15.20
2018-06-23T15:46:21.796Z,15.20
2018-06-23T15:51:24.846Z,15.40
2018-06-23T15:56:27.892Z,15.40
2018-06-23T16:01:30.929Z,15.00
2018-06-23T16:11:36.925Z,14.80
2018-06-23T16:16:40.011Z,14.80
2018-06-23T16:21:43.108Z,14.80
2018-06-23T16:26:46.205Z,14.90
2018-06-23T16:31:49.366Z,15.10
2018-06-23T16:36:53.760Z,15.20
2018-06-23T16:41:56.914Z,15.40
2018-06-23T16:47:00.046Z,15.60
2018-06-23T16:57:06.012Z,15.70
2018-06-23T17:02:09.161Z,15.70
2018-06-23T17:07:12.282Z,15.70
2018-06-23T17:12:15.489Z,15.70
2018-06-23T17:17:18.736Z,15.60
2018-06-23T17:22:21.906Z,15.60
2018-06-23T17:27:25.956Z,15.60
2018-06-23T17:32:29.076Z,15.50
2018-06-23T17:37:32.308Z,15.40
2018-06-23T17:47:38.764Z,15.40
2018-06-23T17:52:42.108Z,15.40
2018-06-23T17:57:45.556Z,15.30
2018-06-23T18:02:48.628Z,15.20
2018-06-23T18:07:52.209Z,15.10
2018-06-23T18:12:55.421Z,15.00
2018-06-23T18:17:59.322Z,14.90
2018-06-23T18:23:04.041Z,14.90
2018-06-23T18:28:07.205Z,14.90
2018-06-23T18:38:14.190Z,14.70
2018-06-23T18:43:17.896Z,14.60
2018-06-23T18:48:23.443Z,14.60
2018-06-23T18:53:26.636Z,14.40
2018-06-23T18:58:30.205Z,14.40
2018-06-23T19:03:34.518Z,14.40
2018-06-23T19:08:38.170Z,14.20
2018-06-23T19:13:42.195Z,14.00
2018-06-23T19:18:47.270Z,13.90
2018-06-23T19:23:50.762Z,13.80
2018-06-23T19:28:53.866Z,13.80
2018-06-23T19:33:57.214Z,13.90
2018-06-23T19:39:00.298Z,13.90
2018-06-23T19:44:03.471Z,13.90
2018-06-23T19:49:06.560Z,13.80
2018-06-23T19:54:09.622Z,13.80
2018-06-23T19:59:12.700Z,13.80
2018-06-23T20:04:17.162Z,13.70
2018-06-23T20:09:20.804Z,13.50
2018-06-23T20:14:24.527Z,13.40
2018-06-23T20:19:27.973Z,13.30
2018-06-23T20:24:31.366Z,13.30
2018-06-23T20:29:35.460Z,13.20
2018-06-23T20:34:40.087Z,13.20
2018-06-23T20:39:43.605Z,13.00
2018-06-23T20:44:47.577Z,13.00
2018-06-23T20:49:51.508Z,13.00
2018-06-23T20:54:55.304Z,13.00
2018-06-23T20:59:59.779Z,12.90
2018-06-23T21:05:03.317Z,12.90
2018-06-23T21:10:07.760Z,12.90
2018-06-23T21:15:10.996Z,12.90
2018-06-23T21:20:14.092Z,12.90
2018-06-23T21:25:17.642Z,12.90
2018-06-23T21:30:21.039Z,12.90
2018-06-23T21:35:25.156Z,12.90
2018-06-23T21:40:28.321Z,12.80
2018-06-23T21:45:31.600Z,12.80
2018-06-23T21:50:34.812Z,12.80
2018-06-23T21:55:38.081Z,12.80
2018-06-23T22:00:42.704Z,12.80
2018-06-23T22:05:45.885Z,12.70
2018-06-23T22:10:49.115Z,12.60
2018-06-23T22:15:52.181Z,12.60
2018-06-23T22:20:55.300Z,12.60
2018-06-23T22:25:58.451Z,12.50
2018-06-23T22:31:01.647Z,12.50
2018-06-23T22:36:04.712Z,12.60
2018-06-23T22:41:07.900Z,12.60
2018-06-23T22:46:11.071Z,12.60
2018-06-23T22:51:14.166Z,12.60
2018-06-23T22:56:17.241Z,12.70
2018-06-23T23:01:20.302Z,12.70
2018-06-23T23:06:23.368Z,12.60
2018-06-23T23:11:26.437Z,12.60
2018-06-23T23:16:29.706Z,12.60
2018-06-23T23:21:32.784Z,12.60
2018-06-23T23:26:35.865Z,12.60
2018-06-23T23:31:39.028Z,12.50
2018-06-23T23:36:42.116Z,12.60
2018-06-23T23:41:46.261Z,12.60
2018-06-23T23:46:49.423Z,12.60
2018-06-23T23:51:52.473Z,12.60
2018-06-23T23:56:55.581Z,12.60
